createdAt,value
2018-10-05T00:02:21.859Z,11.81
2018-10-05T00:04:51.569Z,11.78
2018-10-05T00:07:21.302Z,11.75
2018-10-05T00:09:50.987Z,11.73
2018-10-05T00:12:20.796Z,11.64
2018-10-05T00:14:50.529Z,11.56
2018-10-05T00:17:20.181Z,11.59
2018-10-05T00:19:50.106Z,11.58
2018-10-05T00:22:20.867Z,11.66
2018-10-05T00:24:50.349Z,11.62
2018-10-05T00:27:21.213Z,11.55
2018-10-05T00:29:52.014Z,11.52
2018-10-05T00:32:21.599Z,11.44
2018-10-05T00:34:51.307Z,11.43
2018-10-05T00:37:20.975Z,11.49
2018-10-05T00:39:50.736Z,11.47
2018-10-05T00:42:20.420Z,11.36
2018-10-05T00:44:50.172Z,11.36
2018-10-05T00:47:19.932Z,11.28
2018-10-05T00:49:49.562Z,11.24
2018-10-05T00:52:19.285Z,11.21
2018-10-05T00:54:49.011Z,11.05
2018-10-05T00:57:25.755Z,11.16
2018-10-05T00:59:55.341Z,11.00
2018-10-05T01:02:24.861Z,10.85
2018-10-05T01:04:54.478Z,10.86
2018-10-05T01:07:24.670Z,10.92
2018-10-05T01:09:54.274Z,11.02
2018-10-05T01:12:23.987Z,10.94
2018-10-05T01:14:53.576Z,10.97
2018-10-05T01:17:23.631Z,11.03
2018-10-05T01:19:53.285Z,10.98
2018-10-05T01:22:22.852Z,10.87
2018-10-05T01:24:52.338Z,10.77
2018-10-05T01:27:21.859Z,10.65
2018-10-05T01:29:51.452Z,10.61
2018-10-05T01:32:21.167Z,10.68
2018-10-05T01:34:50.758Z,10.72
2018-10-05T01:37:20.363Z,10.66
2018-10-05T01:39:49.929Z,10.60
2018-10-05T01:42:19.519Z,10.63
2018-10-05T01:44:49.061Z,10.58
2018-10-05T01:47:18.682Z,10.54
2018-10-05T01:49:48.349Z,10.56
2018-10-05T01:52:18.012Z,10.56
2018-10-05T01:54:47.549Z,10.62
2018-10-05T01:57:17.079Z,10.56
2018-10-05T01:59:46.666Z,10.51
2018-10-05T02:02:16.180Z,10.44
2018-10-05T02:04:45.721Z,10.37
2018-10-05T02:07:15.368Z,10.36
2018-10-05T02:09:44.903Z,10.42
2018-10-05T02:12:14.449Z,10.37
2018-10-05T02:14:44.050Z,10.34
2018-10-05T02:17:13.732Z,10.36
2018-10-05T02:19:43.305Z,10.37
2018-10-05T02:22:13.020Z,10.37
2018-10-05T02:24:42.598Z,10.35
2018-10-05T02:27:12.417Z,10.40
2018-10-05T02:29:42.271Z,10.37
2018-10-05T02:32:11.711Z,10.38
2018-10-05T02:34:41.247Z,10.44
2018-10-05T02:37:10.718Z,10.35
2018-10-05T02:39:40.320Z,10.31
2018-10-05T02:42:09.964Z,10.33
2018-10-05T02:44:39.402Z,10.35
2018-10-05T02:47:09.122Z,10.32
2018-10-05T02:49:38.814Z,10.24
2018-10-05T02:52:08.471Z,10.33
2018-10-05T02:54:37.899Z,10.10
2018-10-05T02:57:07.525Z,10.00
2018-10-05T02:59:37.022Z,9.92
2018-10-05T03:02:17.378Z,9.82
2018-10-05T03:04:47.095Z,9.69
2018-10-05T03:07:16.726Z,9.61
2018-10-05T03:09:46.389Z,9.57
2018-10-05T03:12:15.804Z,9.60
2018-10-05T03:14:45.785Z,9.56
2018-10-05T03:17:17.366Z,9.51
2018-10-05T03:19:47.120Z,9.49
2018-10-05T03:22:16.630Z,9.45
2018-10-05T03:24:46.345Z,9.41
2018-10-05T03:27:15.944Z,9.42
2018-10-05T03:29:46.537Z,9.40
2018-10-05T03:32:16.179Z,9.48
2018-10-05T03:34:45.806Z,9.48
2018-10-05T03:37:15.361Z,9.46
2018-10-05T03:39:44.928Z,9.52
2018-10-05T03:42:14.470Z,9.47
2018-10-05T03:44:44.052Z,9.48
2018-10-05T03:47:13.584Z,9.46
2018-10-05T03:49:43.179Z,9.47
2018-10-05T03:52:13.135Z,9.50
2018-10-05T03:54:42.773Z,9.47
2018-10-05T03:57:12.314Z,9.46
2018-10-05T03:59:42.035Z,9.52
2018-10-05T04:02:11.592Z,9.62
2018-10-05T04:04:41.133Z,9.57
2018-10-05T04:07:11.450Z,9.56
2018-10-05T04:09:41.029Z,9.55
2018-10-05T04:12:10.561Z,9.59
2018-10-05T04:14:40.159Z,9.54
2018-10-05T04:17:09.986Z,9.57
2018-10-05T04:19:39.532Z,9.48
2018-10-05T04:22:09.295Z,9.53
2018-10-05T04:24:38.955Z,9.47
2018-10-05T04:27:08.570Z,9.43
2018-10-05T04:29:38.117Z,9.31
2018-10-05T04:32:07.907Z,9.34
2018-10-05T04:34:37.407Z,9.31
2018-10-05T04:37:06.951Z,9.37
2018-10-05T04:39:36.460Z,9.34
2018-10-05T04:42:06.072Z,9.31
2018-10-05T04:44:35.723Z,9.22
2018-10-05T04:47:05.362Z,9.16
2018-10-05T04:49:35.229Z,9.21
2018-10-05T04:52:04.571Z,9.18
2018-10-05T04:54:34.159Z,9.44
2018-10-05T04:57:03.681Z,9.60
2018-10-05T04:59:33.259Z,9.84
2018-10-05T05:02:02.973Z,10.32
2018-10-05T05:04:32.567Z,10.48
2018-10-05T05:07:02.115Z,10.78
2018-10-05T05:09:32.602Z,11.18
2018-10-05T05:12:02.160Z,11.67
2018-10-05T05:14:32.014Z,11.99
2018-10-05T05:17:01.594Z,12.35
2018-10-05T05:19:31.180Z,12.77
2018-10-05T05:22:00.751Z,13.13
2018-10-05T05:24:30.442Z,13.49
2018-10-05T05:26:59.982Z,14.00
2018-10-05T05:29:29.578Z,14.29
2018-10-05T05:31:59.304Z,14.74
2018-10-05T05:34:28.958Z,15.22
2018-10-05T05:36:58.537Z,15.46
2018-10-05T05:39:27.991Z,15.67
2018-10-05T05:41:57.572Z,15.82
2018-10-05T05:44:27.236Z,16.29
2018-10-05T05:46:56.797Z,16.25
2018-10-05T05:49:26.466Z,16.45
2018-10-05T05:51:56.198Z,16.94
2018-10-05T05:54:25.738Z,17.48
2018-10-05T05:56:55.430Z,17.72
2018-10-05T05:59:25.702Z,17.70
2018-10-05T06:01:55.340Z,17.99
2018-10-05T06:04:24.915Z,18.27
2018-10-05T06:06:54.604Z,18.14
2018-10-05T06:09:24.647Z,18.18
2018-10-05T06:11:54.280Z,18.09
2018-10-05T06:14:23.878Z,18.26
2018-10-05T06:16:54.682Z,18.43
2018-10-05T06:19:24.196Z,18.72
2018-10-05T06:21:53.781Z,18.65
2018-10-05T06:24:23.730Z,18.52
2018-10-05T06:26:53.323Z,19.18
2018-10-05T06:29:22.834Z,19.23
2018-10-05T06:31:52.431Z,19.59
2018-10-05T06:34:22.196Z,20.41
2018-10-05T06:36:51.718Z,20.61
2018-10-05T06:39:21.379Z,21.03
2018-10-05T06:41:50.937Z,20.67
2018-10-05T06:44:20.819Z,20.41
2018-10-05T06:46:50.601Z,20.38
2018-10-05T06:49:20.308Z,20.47
2018-10-05T06:51:49.930Z,20.39
2018-10-05T06:54:20.770Z,20.42
2018-10-05T06:56:50.573Z,20.80
2018-10-05T06:59:20.204Z,21.55
2018-10-05T07:01:49.807Z,21.68
2018-10-05T07:04:19.341Z,21.99
2018-10-05T07:06:49.025Z,21.91
2018-10-05T07:09:18.759Z,22.02
2018-10-05T07:11:48.279Z,22.38
2018-10-05T07:14:17.932Z,22.26
2018-10-05T07:16:47.576Z,21.84
2018-10-05T07:19:17.035Z,22.93
2018-10-05T07:21:46.603Z,23.40
2018-10-05T07:24:16.117Z,22.61
2018-10-05T07:26:45.627Z,23.33
2018-10-05T07:29:15.075Z,23.19
2018-10-05T07:31:44.747Z,22.21
2018-10-05T07:34:14.388Z,22.90
2018-10-05T07:36:44.390Z,23.61
2018-10-05T07:39:13.894Z,23.24
2018-10-05T07:41:44.367Z,23.60
2018-10-05T07:44:13.993Z,23.68
2018-10-05T07:46:43.632Z,24.39
2018-10-05T07:49:13.137Z,23.95
2018-10-05T07:51:42.748Z,23.26
2018-10-05T07:54:12.409Z,22.96
2018-10-05T07:56:43.144Z,23.38
2018-10-05T07:59:13.467Z,23.71
2018-10-05T08:01:43.103Z,23.70
2018-10-05T08:04:12.742Z,24.42
2018-10-05T08:06:42.260Z,22.90
2018-10-05T08:09:12.065Z,23.46
2018-10-05T08:11:41.880Z,23.61
2018-10-05T08:14:11.726Z,24.18
2018-10-05T08:16:41.309Z,24.87
2018-10-05T08:19:10.864Z,24.92
2018-10-05T08:21:40.559Z,25.07
2018-10-05T08:24:10.047Z,24.46
2018-10-05T08:26:39.705Z,25.64
2018-10-05T08:29:09.427Z,25.15
2018-10-05T08:31:39.995Z,25.29
2018-10-05T08:34:09.600Z,25.24
2018-10-05T08:36:39.681Z,25.46
2018-10-05T08:39:11.799Z,25.84
2018-10-05T08:41:41.540Z,24.97
2018-10-05T08:44:11.408Z,26.17
2018-10-05T08:46:41.071Z,26.34
2018-10-05T08:49:10.665Z,26.19
2018-10-05T08:51:40.818Z,26.92
2018-10-05T08:54:10.582Z,24.96
2018-10-05T08:56:40.876Z,25.43
2018-10-05T08:59:12.930Z,25.23
2018-10-05T09:01:42.519Z,25.18
2018-10-05T09:04:12.138Z,24.95
2018-10-05T09:06:41.757Z,25.59
2018-10-05T09:09:12.301Z,25.55
2018-10-05T09:11:41.788Z,25.75
2018-10-05T09:14:11.329Z,26.52
2018-10-05T09:16:41.123Z,26.29
2018-10-05T09:19:10.779Z,26.43
2018-10-05T09:21:40.274Z,26.17
2018-10-05T09:24:09.887Z,26.66
2018-10-05T09:26:39.549Z,26.53
2018-10-05T09:29:09.087Z,25.87
2018-10-05T09:31:39.531Z,26.11
2018-10-05T09:34:09.769Z,26.16
2018-10-05T09:36:39.420Z,26.67
2018-10-05T09:39:09.188Z,27.02
2018-10-05T09:41:38.777Z,27.05
2018-10-05T09:44:08.286Z,27.27
2018-10-05T09:46:37.969Z,26.60
2018-10-05T09:49:07.426Z,26.44
2018-10-05T09:51:36.898Z,26.53
2018-10-05T09:54:06.467Z,26.69
2018-10-05T09:56:36.046Z,26.28
2018-10-05T09:59:06.234Z,25.62
2018-10-05T10:01:40.885Z,26.19
2018-10-05T10:04:10.469Z,25.42
2018-10-05T10:06:39.911Z,26.18
2018-10-05T10:09:10.335Z,26.02
2018-10-05T10:11:39.793Z,25.86
2018-10-05T10:14:09.348Z,25.71
2018-10-05T10:16:38.811Z,26.15
2018-10-05T10:19:08.490Z,25.42
2018-10-05T10:21:38.235Z,25.77
2018-10-05T10:24:07.676Z,26.31
2018-10-05T10:26:37.415Z,26.65
2018-10-05T10:29:07.054Z,26.74
2018-10-05T10:31:37.555Z,26.82
2018-10-05T10:34:07.103Z,27.46
2018-10-05T10:36:37.416Z,27.66
2018-10-05T10:39:08.491Z,27.15
2018-10-05T10:41:38.080Z,26.92
2018-10-05T10:44:07.852Z,26.98
2018-10-05T10:46:37.456Z,26.77
2018-10-05T10:49:07.409Z,27.53
2018-10-05T10:51:37.105Z,27.31
2018-10-05T10:54:07.521Z,27.04
2018-10-05T10:56:37.204Z,27.03
2018-10-05T10:59:06.804Z,27.34
2018-10-05T11:01:36.461Z,27.16
2018-10-05T11:04:06.119Z,26.54
2018-10-05T11:06:35.748Z,27.06
2018-10-05T11:09:06.289Z,27.33
2018-10-05T11:11:35.891Z,26.72
2018-10-05T11:14:05.507Z,26.47
2018-10-05T11:16:35.791Z,27.34
2018-10-05T11:19:05.398Z,27.11
2018-10-05T11:21:35.067Z,27.02
2018-10-05T11:24:04.753Z,27.29
2018-10-05T11:26:34.267Z,26.91
2018-10-05T11:29:03.712Z,26.58
2018-10-05T11:31:33.386Z,26.45
2018-10-05T11:34:02.918Z,26.76
2018-10-05T11:36:32.560Z,26.48
2018-10-05T11:39:02.079Z,25.82
2018-10-05T11:41:31.846Z,26.42
2018-10-05T11:44:01.422Z,26.65
2018-10-05T11:46:31.038Z,26.69
2018-10-05T11:49:00.611Z,26.80
2018-10-05T11:51:30.026Z,26.71
2018-10-05T11:53:59.825Z,26.79
2018-10-05T11:56:29.738Z,26.40
2018-10-05T11:58:59.266Z,25.97
2018-10-05T12:01:29.081Z,26.26
2018-10-05T12:03:58.719Z,25.47
2018-10-05T12:06:28.225Z,25.02
2018-10-05T12:08:57.985Z,24.33
2018-10-05T12:11:28.592Z,24.04
2018-10-05T12:13:58.998Z,23.69
2018-10-05T12:16:28.569Z,23.54
2018-10-05T12:18:58.074Z,23.57
2018-10-05T12:21:27.721Z,23.37
2018-10-05T12:23:57.335Z,23.24
2018-10-05T12:26:26.947Z,23.22
2018-10-05T12:28:56.734Z,23.30
2018-10-05T12:31:26.333Z,23.29
2018-10-05T12:33:56.169Z,23.19
2018-10-05T12:36:25.675Z,23.18
2018-10-05T12:38:55.375Z,23.27
2018-10-05T12:41:26.348Z,23.43
2018-10-05T12:43:56.465Z,23.54
2018-10-05T12:46:26.911Z,23.67
2018-10-05T12:48:56.567Z,23.57
2018-10-05T12:51:26.147Z,23.68
2018-10-05T12:53:55.765Z,23.71
2018-10-05T12:56:25.292Z,23.64
2018-10-05T12:58:54.893Z,23.48
2018-10-05T13:01:24.552Z,23.45
2018-10-05T13:03:54.787Z,23.46
2018-10-05T13:06:24.423Z,23.40
2018-10-05T13:08:54.100Z,23.34
2018-10-05T13:11:23.756Z,23.47
2018-10-05T13:13:53.332Z,23.68
2018-10-05T13:16:22.890Z,23.41
2018-10-05T13:18:52.823Z,23.44
2018-10-05T13:21:22.476Z,23.43
2018-10-05T13:23:52.104Z,23.56
2018-10-05T13:26:21.758Z,23.54
2018-10-05T13:28:51.428Z,23.50
2018-10-05T13:31:20.983Z,23.61
2018-10-05T13:33:50.663Z,23.73
2018-10-05T13:36:20.307Z,23.79
2018-10-05T13:38:49.921Z,23.77
2018-10-05T13:41:19.562Z,23.75
2018-10-05T13:43:49.119Z,23.84
2018-10-05T13:46:18.707Z,23.79
2018-10-05T13:48:48.360Z,23.74
2018-10-05T13:51:18.059Z,23.67
2018-10-05T13:53:47.605Z,23.68
2018-10-05T13:56:17.378Z,23.76
2018-10-05T13:58:46.824Z,23.81
2018-10-05T14:01:17.804Z,23.77
2018-10-05T14:03:47.190Z,23.81
2018-10-05T14:06:16.783Z,23.80
2018-10-05T14:08:46.294Z,23.65
2018-10-05T14:11:16.005Z,23.82
2018-10-05T14:13:45.690Z,23.80
2018-10-05T14:16:15.230Z,23.80
2018-10-05T14:18:44.734Z,23.71
2018-10-05T14:21:14.467Z,23.72
2018-10-05T14:23:44.482Z,23.74
2018-10-05T14:26:14.206Z,23.72
2018-10-05T14:28:43.944Z,23.59
2018-10-05T14:31:14.011Z,23.66
2018-10-05T14:33:43.698Z,23.58
2018-10-05T14:36:13.364Z,23.61
2018-10-05T14:38:42.927Z,23.69
2018-10-05T14:41:12.527Z,23.54
2018-10-05T14:43:42.181Z,23.46
2018-10-05T14:46:11.716Z,23.42
2018-10-05T14:48:41.298Z,23.43
2018-10-05T14:51:10.832Z,23.44
2018-10-05T14:53:40.483Z,23.28
2018-10-05T14:56:10.270Z,23.29
2018-10-05T14:58:39.763Z,23.31
2018-10-05T15:01:09.260Z,23.20
2018-10-05T15:03:39.000Z,23.12
2018-10-05T15:06:08.495Z,23.03
2018-10-05T15:08:38.153Z,23.00
2018-10-05T15:11:07.787Z,22.99
2018-10-05T15:13:37.354Z,22.81
2018-10-05T15:16:06.913Z,22.77
2018-10-05T15:18:36.835Z,22.65
2018-10-05T15:21:06.426Z,22.56
2018-10-05T15:23:35.993Z,22.55
2018-10-05T15:26:05.576Z,22.47
2018-10-05T15:28:35.165Z,22.34
2018-10-05T15:31:04.805Z,22.20
2018-10-05T15:33:34.488Z,22.19
2018-10-05T15:36:04.251Z,22.13
2018-10-05T15:38:33.857Z,22.02
2018-10-05T15:41:03.473Z,21.99
2018-10-05T15:43:33.123Z,21.88
2018-10-05T15:46:06.931Z,21.83
2018-10-05T15:48:37.022Z,21.69
2018-10-05T15:51:08.022Z,21.67
2018-10-05T15:53:37.680Z,21.65
2018-10-05T15:56:07.408Z,21.51
2018-10-05T15:58:37.068Z,21.48
2018-10-05T16:01:06.758Z,21.34
2018-10-05T16:03:36.325Z,21.33
2018-10-05T16:06:05.953Z,21.26
2018-10-05T16:08:36.178Z,21.20
2018-10-05T16:11:05.682Z,21.06
2018-10-05T16:13:35.289Z,20.98
2018-10-05T16:16:04.852Z,20.90
2018-10-05T16:18:34.444Z,20.83
2018-10-05T16:21:04.156Z,20.78
2018-10-05T16:23:34.235Z,20.65
2018-10-05T16:26:03.803Z,20.55
2018-10-05T16:28:33.700Z,20.46
2018-10-05T16:31:03.363Z,20.41
2018-10-05T16:33:33.087Z,20.38
2018-10-05T16:36:02.718Z,20.27
2018-10-05T16:38:32.256Z,20.18
2018-10-05T16:41:01.806Z,20.08
2018-10-05T16:43:31.396Z,19.83
2018-10-05T16:46:01.020Z,19.92
2018-10-05T16:48:30.579Z,19.86
2018-10-05T16:51:00.368Z,19.79
2018-10-05T16:53:31.091Z,19.74
2018-10-05T16:56:00.659Z,19.64
2018-10-05T16:58:30.334Z,19.62
2018-10-05T17:00:59.885Z,19.54
2018-10-05T17:03:29.429Z,19.45
2018-10-05T17:05:59.106Z,19.36
2018-10-05T17:08:29.958Z,19.32
2018-10-05T17:10:59.610Z,19.29
2018-10-05T17:13:29.225Z,19.18
2018-10-05T17:15:58.781Z,19.09
2018-10-05T17:18:28.271Z,19.00
2018-10-05T17:20:58.290Z,18.93
2018-10-05T17:23:27.953Z,18.90
2018-10-05T17:25:57.627Z,18.84
2018-10-05T17:28:27.355Z,18.85
2018-10-05T17:30:57.065Z,18.71
2018-10-05T17:33:26.727Z,18.66
2018-10-05T17:35:56.280Z,18.61
2018-10-05T17:38:26.245Z,18.55
2018-10-05T17:40:55.745Z,18.46
2018-10-05T17:43:25.272Z,18.46
2018-10-05T17:45:54.839Z,18.28
2018-10-05T17:48:24.500Z,18.14
2018-10-05T17:50:54.002Z,18.12
2018-10-05T17:53:23.644Z,18.04
2018-10-05T17:55:53.383Z,18.05
2018-10-05T17:58:22.929Z,17.99
2018-10-05T18:00:52.472Z,17.92
2018-10-05T18:03:22.004Z,17.81
2018-10-05T18:05:51.572Z,17.81
2018-10-05T18:08:21.254Z,17.79
2018-10-05T18:10:50.803Z,17.71
2018-10-05T18:13:20.328Z,17.67
2018-10-05T18:15:51.432Z,17.61
2018-10-05T18:18:21.039Z,17.62
2018-10-05T18:20:51.068Z,17.57
2018-10-05T18:23:20.629Z,17.50
2018-10-05T18:25:50.917Z,17.46
2018-10-05T18:28:20.568Z,17.33
2018-10-05T18:30:50.050Z,17.26
2018-10-05T18:33:19.774Z,17.20
2018-10-05T18:35:49.467Z,17.24
2018-10-05T18:38:19.067Z,17.22
2018-10-05T18:40:48.819Z,17.22
2018-10-05T18:43:18.373Z,17.18
2018-10-05T18:45:47.988Z,17.14
2018-10-05T18:48:17.482Z,17.07
2018-10-05T18:50:48.043Z,17.02
2018-10-05T18:53:17.620Z,17.02
2018-10-05T18:55:47.287Z,16.98
2018-10-05T18:58:16.900Z,16.95
2018-10-05T19:00:46.447Z,16.86
2018-10-05T19:03:16.106Z,16.85
2018-10-05T19:05:45.871Z,16.85
2018-10-05T19:08:15.441Z,16.82
2018-10-05T19:10:45.071Z,16.81
2018-10-05T19:13:14.430Z,16.78
2018-10-05T19:15:44.040Z,16.78
2018-10-05T19:18:13.645Z,16.67
2018-10-05T19:20:43.228Z,16.59
2018-10-05T19:23:12.904Z,16.61
2018-10-05T19:25:42.670Z,16.56
2018-10-05T19:28:12.182Z,16.53
2018-10-05T19:30:41.724Z,16.57
2018-10-05T19:33:11.585Z,16.53
2018-10-05T19:35:41.189Z,16.54
2018-10-05T19:38:10.777Z,16.51
2018-10-05T19:40:40.449Z,16.55
2018-10-05T19:43:10.024Z,16.56
2018-10-05T19:45:39.591Z,16.53
2018-10-05T19:48:09.162Z,16.41
2018-10-05T19:50:38.724Z,16.43
2018-10-05T19:53:08.483Z,16.27
2018-10-05T19:55:38.122Z,16.25
2018-10-05T19:58:07.596Z,16.12
2018-10-05T20:00:36.987Z,16.07
2018-10-05T20:03:06.665Z,16.06
2018-10-05T20:05:36.411Z,16.06
2018-10-05T20:08:06.056Z,15.99
2018-10-05T20:10:35.891Z,15.91
2018-10-05T20:13:06.014Z,15.89
2018-10-05T20:15:35.594Z,15.89
2018-10-05T20:18:05.335Z,15.94
2018-10-05T20:20:34.991Z,15.92
2018-10-05T20:23:04.544Z,15.91
2018-10-05T20:25:34.110Z,15.86
2018-10-05T20:28:03.847Z,15.82
2018-10-05T20:30:33.521Z,15.83
2018-10-05T20:33:03.076Z,15.81
2018-10-05T20:35:34.565Z,15.78
2018-10-05T20:38:04.217Z,15.74
2018-10-05T20:40:33.882Z,15.78
2018-10-05T20:43:03.406Z,15.85
2018-10-05T20:45:32.851Z,15.81
2018-10-05T20:48:02.460Z,15.78
2018-10-05T20:50:32.013Z,15.77
2018-10-05T20:53:01.632Z,15.76
2018-10-05T20:55:31.180Z,15.74
2018-10-05T20:58:01.554Z,15.74
2018-10-05T21:00:31.250Z,15.74
2018-10-05T21:03:00.808Z,15.68
2018-10-05T21:05:30.395Z,15.65
2018-10-05T21:08:00.105Z,15.61
2018-10-05T21:10:29.736Z,15.51
2018-10-05T21:12:59.403Z,15.49
2018-10-05T21:15:28.971Z,15.42
2018-10-05T21:17:58.611Z,15.43
2018-10-05T21:20:28.255Z,15.36
2018-10-05T21:22:57.910Z,15.27
2018-10-05T21:25:27.448Z,15.18
2018-10-05T21:27:56.990Z,15.13
2018-10-05T21:30:26.549Z,15.03
2018-10-05T21:32:56.204Z,15.00
2018-10-05T21:35:25.863Z,14.94
2018-10-05T21:37:55.260Z,14.93
2018-10-05T21:40:24.743Z,14.91
2018-10-05T21:42:54.433Z,14.91
2018-10-05T21:45:24.030Z,14.85
2018-10-05T21:47:53.458Z,14.82
2018-10-05T21:50:23.053Z,14.77
2018-10-05T21:52:52.929Z,14.72
2018-10-05T21:55:22.551Z,14.74
2018-10-05T21:57:52.124Z,14.65
2018-10-05T22:00:21.729Z,14.61
2018-10-05T22:02:51.482Z,14.66
2018-10-05T22:05:21.070Z,14.68
2018-10-05T22:07:50.708Z,14.65
2018-10-05T22:10:20.289Z,14.60
2018-10-05T22:12:49.925Z,14.62
2018-10-05T22:15:19.370Z,14.55
2018-10-05T22:17:49.499Z,14.48
2018-10-05T22:20:19.136Z,14.48
2018-10-05T22:22:48.811Z,14.49
2018-10-05T22:25:18.444Z,14.43
2018-10-05T22:27:48.083Z,14.38
2018-10-05T22:30:17.547Z,14.50
2018-10-05T22:32:47.179Z,14.45
2018-10-05T22:35:16.866Z,14.47
2018-10-05T22:37:46.526Z,14.51
2018-10-05T22:40:16.108Z,14.66
2018-10-05T22:42:45.703Z,14.63
2018-10-05T22:45:15.415Z,14.68
2018-10-05T22:47:44.939Z,14.62
2018-10-05T22:50:14.620Z,14.52
2018-10-05T22:52:44.248Z,14.43
2018-10-05T22:55:13.862Z,14.31
2018-10-05T22:57:43.542Z,14.21
2018-10-05T23:00:13.233Z,14.20
2018-10-05T23:02:42.724Z,14.05
2018-10-05T23:05:12.897Z,13.98
2018-10-05T23:07:42.479Z,13.97
2018-10-05T23:10:12.084Z,14.03
2018-10-05T23:12:41.681Z,14.01
2018-10-05T23:15:11.773Z,14.00
2018-10-05T23:17:41.663Z,13.96
2018-10-05T23:20:11.338Z,13.96
2018-10-05T23:22:40.891Z,13.93
2018-10-05T23:25:10.574Z,13.93
2018-10-05T23:27:39.977Z,13.95
2018-10-05T23:30:09.549Z,13.93
2018-10-05T23:32:39.163Z,13.85
2018-10-05T23:35:08.683Z,13.83
2018-10-05T23:37:39.500Z,13.85
2018-10-05T23:40:09.138Z,13.93
2018-10-05T23:42:39.434Z,13.87
2018-10-05T23:45:09.047Z,13.91
2018-10-05T23:47:39.143Z,13.90
2018-10-05T23:50:09.108Z,13.96
2018-10-05T23:52:57.037Z,13.95
2018-10-05T23:55:26.720Z,13.91
2018-10-05T23:57:56.699Z,13.97
